Terminal Aerodrome Forecast
Issued by NWS Bismarck, ND

Home | Current Version | Previous Version | Graphics & Text | Print | Product List | Glossary On
Versions: 1 2 3 4 5 6 7 8 9 10 11 12 13 14
000
FTUS43 KBIS 270526
TAFISN
TAF
KISN 270526Z 2706/2806 10005KT P6SM VCSH SCT100 BKN120
     FM270900 13005KT P6SM VCTS BKN100CB
     FM271100 13005KT P6SM BKN100
     FM271800 17009KT P6SM VCTS SCT100CB BKN200
     FM280100 14009KT P6SM BKN100 BKN150=

USA.gov is the U.S. government's official web portal to all federal, state and local government web resources and services.